Flight Track Log - Related Links

Times and Time Zones

All times are in EDT time to prevent confusion due to time zone crossing. See the BJS542 flight status page for this flight to view local times or setup timezone preferences in your user account.

Time Position Orientation Groundspeed Altitude Reporting Facility
EDT Latitude Longitude Course Direction KTS MPH feet Rate Location/Type
Sat 04:19:27 PM 34.4261 -119.8614 256° West 162 186 900  Level Los Angeles Center
Sat 04:20:19 PM 34.4161 -119.9111 256° West 215 247 3,900 3,316 Climbing Los Angeles Center
Sat 04:21:21 PM 34.3514 -119.8889 164° South 259 298 7,200 2,323 Climbing Los Angeles Center
Sat 04:22:23 PM 34.3064 -119.8194 128° Southeast 264 304 8,700 1,694 Climbing Los Angeles Center
Sat 04:23:25 PM 34.3097 -119.7125 88° East 289 333 10,700 1,113 Climbing Los Angeles Center
Sat 04:24:27 PM 34.3217 -119.5642 84° East 356 410 11,000 145 Climbing Los Angeles Center
Sat 04:25:29 PM 34.3286 -119.4411 86° East 366 421 11,000  Level Los Angeles Center
Sat 04:26:30 PM 34.3367 -119.3167 85° East 371 427 11,000 -98 Level Los Angeles Center
Sat 04:27:32 PM 34.3422 -119.1986 87° East 355 409 10,800 -871 Descending Los Angeles Center
Sat 04:28:34 PM 34.3456 -119.0947 88° East 305 351 9,200 -871 Descending Los Angeles Center
Sat 04:29:36 PM 34.3525 -118.9933 85° East 299 344 9,000 -435 Descending Los Angeles Center
Sat 04:30:38 PM 34.3539 -118.8972 89° East 289 333 8,300 -1,210 Descending Los Angeles Center
Sat 04:31:40 PM 34.2933 -118.8386 141° Southeast 284 327 6,500 -1,403 Descending Los Angeles Center
Sat 04:32:42 PM 34.2289 -118.7767 142° Southeast 248 285 5,400 -726 Descending Los Angeles Center
Sat 04:33:44 PM 34.2103 -118.7047 107° East 234 269 5,000 -574 Descending Los Angeles Center
Sat 04:34:58 PM 34.2011 -118.6283 98° East 230 265 4,100 -655 Descending Los Angeles Center
Sat 04:35:34 PM 34.2000 -118.5500 91° East 237 273 3,800 -1,000 Descending Southern California TRACON
Sat 04:36:34 PM 34.2000 -118.4833 90° East 224 258 2,500 -1,150 Descending Southern California TRACON
Sat 04:37:34 PM 34.2000 -118.4167 90° East 173 199 1,500 -671 Descending Southern California TRACON
Sat 04:39:06 PM 34.1969 -118.3503 93° East 164 189 800 -457 Descending Los Angeles Center
Sat 04:41:00 PM 34.2000 -118.3500 North  Level FlightAware Approximate

Login

Don't have an account? Register now (free) for customized features, flight alerts, and more!